Time;durP1;ratioP1;P1;durP2;ratioP2;P2;SDS_P1;SDS_P2;PMS_P1;PMS_P2;Temp;Humidity;BMP_temperature;BMP_pressure;BME280_temperature;BME280_humidity;BME280_pressure;Samples;Min_cycle;Max_cycle;Signal;HPM_P1;HPM_P2
2021/11/16 00:00:12;;;;;;;17.50;13.93;;;8.60;99.90;;;;;;4993613;28;20207;-68
2021/11/16 00:02:40;;;;;;;18.03;14.50;;;8.50;99.90;;;;;;4995712;28;20184;-69
2021/11/16 00:05:06;;;;;;;19.33;14.30;;;8.50;99.90;;;;;;4994522;28;20423;-70
2021/11/16 00:07:32;;;;;;;22.27;15.83;;;8.50;99.90;;;;;;4993482;28;20585;-69
2021/11/16 00:09:57;;;;;;;19.10;14.17;;;8.60;99.90;;;;;;4993239;28;20943;-68
2021/11/16 00:12:23;;;;;;;20.63;14.77;;;8.50;99.90;;;;;;4993096;28;20672;-68
2021/11/16 00:14:49;;;;;;;19.40;14.83;;;8.50;99.90;;;;;;4994137;28;20176;-71
2021/11/16 00:17:15;;;;;;;19.97;15.47;;;8.50;99.90;;;;;;4991945;28;20715;-68
2021/11/16 00:19:42;;;;;;;20.90;14.63;;;8.50;99.90;;;;;;4993686;28;20443;-69
2021/11/16 00:22:09;;;;;;;18.47;14.37;;;8.50;99.90;;;;;;4993072;28;20168;-69
2021/11/16 00:24:38;;;;;;;20.50;15.07;;;8.50;99.90;;;;;;4993334;28;20404;-68
2021/11/16 00:27:08;;;;;;;19.23;15.10;;;8.40;99.90;;;;;;4993353;28;21038;-69
2021/11/16 00:29:35;;;;;;;20.20;15.03;;;8.40;99.90;;;;;;5000120;28;20426;-68
2021/11/16 00:32:02;;;;;;;22.10;16.00;;;8.40;99.90;;;;;;5026148;28;20424;-69
2021/11/16 00:34:27;;;;;;;21.70;16.07;;;8.40;99.90;;;;;;5015062;28;20414;-69
2021/11/16 00:36:53;;;;;;;23.97;17.00;;;8.40;99.90;;;;;;5005057;28;20521;-69
2021/11/16 00:39:20;;;;;;;19.43;15.03;;;8.40;99.90;;;;;;4992997;28;20291;-69
2021/11/16 00:41:46;;;;;;;21.60;15.90;;;8.40;99.90;;;;;;5000959;28;20179;-69
2021/11/16 00:44:12;;;;;;;24.27;16.73;;;8.30;99.90;;;;;;5014281;28;20406;-69
2021/11/16 00:46:37;;;;;;;24.33;16.30;;;8.20;99.90;;;;;;5013926;28;20306;-69
2021/11/16 00:49:04;;;;;;;20.80;14.07;;;8.20;99.90;;;;;;5015641;28;20534;-69
2021/11/16 00:51:30;;;;;;;20.70;14.93;;;8.00;99.90;;;;;;5013152;28;20189;-70
2021/11/16 00:53:56;;;;;;;22.20;16.53;;;8.00;99.90;;;;;;4999638;28;20426;-69
2021/11/16 00:56:22;;;;;;;21.40;15.40;;;7.90;99.90;;;;;;4998962;28;20466;-70
2021/11/16 00:58:48;;;;;;;21.77;16.40;;;7.90;99.90;;;;;;4998987;28;20558;-70
2021/11/16 01:01:13;;;;;;;23.87;15.70;;;7.90;99.90;;;;;;5000349;28;20435;-69
2021/11/16 01:03:39;;;;;;;22.57;15.70;;;8.00;99.90;;;;;;4999035;28;20653;-69
2021/11/16 01:06:04;;;;;;;23.80;16.30;;;8.10;99.90;;;;;;4994268;28;20183;-69
2021/11/16 01:08:30;;;;;;;25.20;17.40;;;8.00;99.90;;;;;;4994562;28;20700;-69
2021/11/16 01:10:56;;;;;;;21.70;15.97;;;7.90;99.90;;;;;;5003910;28;20168;-70
2021/11/16 01:13:25;;;;;;;23.40;17.73;;;7.90;99.90;;;;;;5013735;28;20229;-69
2021/11/16 01:15:51;;;;;;;23.13;16.03;;;7.90;99.90;;;;;;5010615;28;20407;-69
2021/11/16 01:18:19;;;;;;;24.00;16.30;;;7.80;99.90;;;;;;5011881;28;20437;-69
2021/11/16 01:20:46;;;;;;;27.10;16.70;;;7.80;99.90;;;;;;5012634;28;20467;-70
2021/11/16 01:23:12;;;;;;;23.53;15.90;;;7.80;99.90;;;;;;5002635;28;20987;-70
2021/11/16 01:25:40;;;;;;;24.50;15.60;;;7.80;99.90;;;;;;4999249;28;20931;-70
2021/11/16 01:28:10;;;;;;;23.63;15.47;;;7.90;99.90;;;;;;4993748;28;20896;-70
2021/11/16 01:30:36;;;;;;;19.33;14.63;;;7.90;99.90;;;;;;4992391;28;20450;-70
2021/11/16 01:33:05;;;;;;;25.00;15.37;;;7.90;99.90;;;;;;4993743;28;20412;-69
2021/11/16 01:35:33;;;;;;;21.40;14.20;;;7.80;99.90;;;;;;4993450;28;20436;-69
2021/11/16 01:37:59;;;;;;;19.07;13.57;;;7.80;99.90;;;;;;4992113;28;20963;-70
2021/11/16 01:40:24;;;;;;;18.50;13.80;;;7.80;99.90;;;;;;4992165;28;20520;-69
2021/11/16 01:42:51;;;;;;;19.70;13.60;;;7.80;99.90;;;;;;4992493;28;20561;-69
2021/11/16 01:45:18;;;;;;;20.80;14.10;;;7.90;99.90;;;;;;4993130;28;20227;-69
2021/11/16 01:47:45;;;;;;;24.77;15.07;;;7.90;99.90;;;;;;4993383;28;20443;-70
2021/11/16 01:50:14;;;;;;;19.50;13.53;;;8.00;99.90;;;;;;4992269;28;20434;-68
2021/11/16 01:52:40;;;;;;;19.90;13.33;;;7.90;99.90;;;;;;4992401;28;20416;-70
2021/11/16 01:55:10;;;;;;;20.77;14.13;;;7.90;99.90;;;;;;4991843;28;20909;-69
2021/11/16 01:57:36;;;;;;;19.30;13.37;;;7.90;99.90;;;;;;4993955;28;20208;-70
2021/11/16 02:00:05;;;;;;;22.73;15.23;;;7.90;99.90;;;;;;4996971;28;20959;-70
2021/11/16 02:02:31;;;;;;;19.50;14.40;;;7.90;99.90;;;;;;4997289;28;20172;-68
2021/11/16 02:04:56;;;;;;;20.73;14.23;;;7.80;99.90;;;;;;4997070;28;20754;-69
2021/11/16 02:07:22;;;;;;;21.40;14.90;;;7.80;99.90;;;;;;5000200;28;20200;-71
2021/11/16 02:09:47;;;;;;;18.70;14.13;;;7.70;99.90;;;;;;4995682;28;20745;-69
2021/11/16 02:12:13;;;;;;;25.03;15.77;;;7.60;99.90;;;;;;4996976;28;20190;-70
2021/11/16 02:14:39;;;;;;;22.40;14.03;;;7.50;99.90;;;;;;4996193;28;20660;-69
2021/11/16 02:17:04;;;;;;;23.87;15.50;;;7.40;99.90;;;;;;4996690;28;20287;-69
2021/11/16 02:19:31;;;;;;;25.77;15.00;;;7.40;99.90;;;;;;4996470;28;20219;-69
2021/11/16 02:21:57;;;;;;;22.80;15.47;;;7.30;99.90;;;;;;4996064;28;20262;-70
2021/11/16 02:24:23;;;;;;;24.67;15.87;;;7.30;99.90;;;;;;4996569;28;20498;-70
2021/11/16 02:26:49;;;;;;;22.47;15.67;;;7.40;99.90;;;;;;4997107;28;20956;-69
2021/11/16 02:29:15;;;;;;;24.63;13.90;;;7.50;99.90;;;;;;4996524;28;20450;-70
2021/11/16 02:31:44;;;;;;;22.20;15.10;;;7.50;99.90;;;;;;5014285;28;20890;-69
2021/11/16 02:34:10;;;;;;;23.47;15.10;;;7.70;99.90;;;;;;5015662;28;20456;-70
2021/11/16 02:36:36;;;;;;;21.50;14.70;;;7.70;99.90;;;;;;5015286;28;20433;-70
2021/11/16 02:39:05;;;;;;;25.30;15.87;;;7.70;99.90;;;;;;5000694;28;20459;-70
2021/11/16 02:41:31;;;;;;;22.97;14.27;;;7.70;99.90;;;;;;4997603;28;20459;-71
2021/11/16 02:44:04;;;;;;;26.30;15.80;;;7.60;99.90;;;;;;5030668;28;20437;-70
2021/11/16 02:46:31;;;;;;;22.63;14.97;;;7.60;99.90;;;;;;5034877;28;20893;-70
2021/11/16 02:48:57;;;;;;;21.80;14.90;;;7.70;99.90;;;;;;5036217;28;20485;-70
2021/11/16 02:51:23;;;;;;;22.50;14.07;;;7.80;99.90;;;;;;5035451;28;20416;-70
2021/11/16 02:53:49;;;;;;;21.40;15.47;;;7.80;99.90;;;;;;4997194;28;20485;-70
2021/11/16 02:56:14;;;;;;;22.87;15.00;;;7.90;99.90;;;;;;4995338;28;20779;-70
2021/11/16 02:58:41;;;;;;;20.63;14.53;;;8.00;99.90;;;;;;4995692;28;20204;-69
2021/11/16 03:01:14;;;;;;;20.83;13.93;;;8.00;99.90;;;;;;4995645;28;20169;-70
2021/11/16 03:03:41;;;;;;;18.70;12.30;;;8.10;99.90;;;;;;4996480;28;20466;-70
2021/11/16 03:06:08;;;;;;;25.03;14.30;;;8.00;99.90;;;;;;4994726;28;20403;-70
2021/11/16 03:08:34;;;;;;;18.47;13.87;;;8.10;99.90;;;;;;4994939;28;20419;-70
2021/11/16 03:11:06;;;;;;;20.10;14.00;;;8.10;99.90;;;;;;4996265;28;20434;-69
2021/11/16 03:13:36;;;;;;;21.40;13.53;;;8.10;99.90;;;;;;4994983;28;20408;-69
2021/11/16 03:16:11;;;;;;;17.23;11.73;;;8.10;99.90;;;;;;4994420;28;20391;-70
2021/11/16 03:18:38;;;;;;;16.23;11.90;;;8.20;99.90;;;;;;4994226;28;20932;-70
2021/11/16 03:21:04;;;;;;;18.80;12.47;;;8.20;99.90;;;;;;4993573;28;20490;-69
2021/11/16 03:23:30;;;;;;;16.83;11.67;;;8.20;99.90;;;;;;4995747;28;20428;-70
2021/11/16 03:25:58;;;;;;;17.97;11.67;;;8.20;99.90;;;;;;4994626;28;20912;-70
2021/11/16 03:28:28;;;;;;;14.47;10.70;;;8.20;99.90;;;;;;4995000;28;20228;-70
2021/11/16 03:30:56;;;;;;;14.90;10.50;;;8.20;99.90;;;;;;4995326;28;20387;-69
2021/11/16 03:33:24;;;;;;;13.90;9.93;;;8.20;99.90;;;;;;4996203;28;20459;-70
2021/11/16 03:35:49;;;;;;;13.90;9.97;;;8.20;99.90;;;;;;4993885;28;20462;-70
2021/11/16 03:38:18;;;;;;;14.67;10.13;;;8.20;99.90;;;;;;4994733;28;20831;-69
2021/11/16 03:40:44;;;;;;;15.52;11.35;;;8.20;99.90;;;;;;4992896;28;20420;-70
2021/11/16 03:43:10;;;;;;;14.30;10.57;;;8.20;99.90;;;;;;4993936;28;20255;-69
2021/11/16 03:45:37;;;;;;;13.43;9.60;;;8.20;99.90;;;;;;4992199;28;20527;-69
2021/11/16 03:48:04;;;;;;;12.43;9.60;;;8.20;99.90;;;;;;4993632;28;20952;-69
2021/11/16 03:50:32;;;;;;;14.73;9.80;;;8.20;99.90;;;;;;4994137;28;20945;-68
2021/11/16 03:52:59;;;;;;;13.30;10.03;;;8.10;99.90;;;;;;4994883;28;20545;-69
2021/11/16 03:55:28;;;;;;;15.20;10.90;;;8.00;99.90;;;;;;4994333;28;20511;-69
2021/11/16 03:57:57;;;;;;;14.50;9.87;;;8.00;99.90;;;;;;4993814;28;20439;-69
2021/11/16 04:00:30;;;;;;;15.30;10.53;;;8.00;99.90;;;;;;4998096;28;20546;-69
2021/11/16 04:02:56;;;;;;;14.20;10.20;;;8.10;99.90;;;;;;5011954;28;20493;-69
2021/11/16 04:05:25;;;;;;;14.40;10.00;;;7.90;99.90;;;;;;5010125;28;20863;-69
2021/11/16 04:07:50;;;;;;;13.10;9.43;;;7.90;99.90;;;;;;5013341;28;20985;-69
2021/11/16 04:10:16;;;;;;;14.90;10.30;;;7.90;99.90;;;;;;5013280;28;20414;-70
2021/11/16 04:12:43;;;;;;;14.07;9.90;;;7.90;99.90;;;;;;5014385;28;20215;-70
2021/11/16 04:15:11;;;;;;;15.50;10.23;;;7.90;99.90;;;;;;5008149;28;20532;-69
2021/11/16 04:17:39;;;;;;;17.80;12.13;;;8.00;99.90;;;;;;4992924;28;20427;-70
2021/11/16 04:20:17;;;;;;;14.00;10.30;;;8.00;99.90;;;;;;4992309;28;20554;-68
2021/11/16 04:22:43;;;;;;;19.80;10.77;;;7.90;99.90;;;;;;4993418;28;20395;-68
2021/11/16 04:25:11;;;;;;;15.87;11.20;;;8.00;99.90;;;;;;5010644;28;21000;-68
2021/11/16 04:27:37;;;;;;;16.90;10.80;;;8.10;99.90;;;;;;5012624;28;20196;-68
2021/11/16 04:30:04;;;;;;;17.97;11.57;;;8.00;99.90;;;;;;5013147;28;20411;-69
2021/11/16 04:32:30;;;;;;;15.63;11.30;;;8.00;99.90;;;;;;5013573;28;20779;-68
2021/11/16 04:34:55;;;;;;;16.93;11.97;;;8.10;99.90;;;;;;5013270;28;20419;-69
2021/11/16 04:37:21;;;;;;;18.43;12.20;;;8.10;99.90;;;;;;4999268;28;20343;-69
2021/11/16 04:39:46;;;;;;;16.97;12.00;;;8.20;99.90;;;;;;4993157;28;20199;-70
2021/11/16 04:42:12;;;;;;;17.40;12.07;;;8.10;99.90;;;;;;4994158;28;20185;-69
2021/11/16 04:44:38;;;;;;;16.77;12.00;;;8.20;99.90;;;;;;4992835;28;20192;-68
2021/11/16 04:47:04;;;;;;;18.63;12.30;;;8.20;99.90;;;;;;5030185;22;20276;-66
2021/11/16 04:49:38;;;;;;;20.13;12.00;;;8.20;99.90;;;;;;5033502;28;20449;-68
2021/11/16 04:52:18;;;;;;;19.27;13.70;;;8.10;99.90;;;;;;5030915;28;20417;-68
2021/11/16 04:55:08;;;;;;;17.57;11.87;;;8.10;99.90;;;;;;5034229;28;20425;-68
2021/11/16 05:02:54;;;;;;;17.33;12.00;;;8.10;99.90;;;;;;5001529;28;21061;-69
2021/11/16 05:05:21;;;;;;;19.50;12.43;;;8.20;99.90;;;;;;5015940;28;20505;-70
2021/11/16 05:07:56;;;;;;;19.30;12.73;;;8.20;99.90;;;;;;5033363;28;20825;-68
2021/11/16 05:10:23;;;;;;;15.60;11.23;;;8.20;99.90;;;;;;5021864;28;20441;-69
2021/11/16 05:12:48;;;;;;;19.07;14.10;;;8.20;99.90;;;;;;5033057;28;20958;-69
2021/11/16 05:15:17;;;;;;;15.30;10.90;;;8.10;99.90;;;;;;5013038;28;20465;-69
2021/11/16 05:17:48;;;;;;;17.50;11.67;;;8.10;99.90;;;;;;5015205;28;20252;-68
2021/11/16 05:20:14;;;;;;;18.03;11.13;;;8.00;99.90;;;;;;5001993;28;20479;-74
2021/11/16 05:22:44;;;;;;;18.27;13.20;;;7.90;99.90;;;;;;5008547;28;20468;-69
2021/11/16 05:25:10;;;;;;;21.20;12.50;;;7.90;99.90;;;;;;5015128;28;20592;-70
2021/11/16 05:27:37;;;;;;;18.83;13.30;;;8.00;99.90;;;;;;5025799;28;20453;-70
2021/11/16 05:30:06;;;;;;;18.70;13.30;;;7.90;99.90;;;;;;5048538;28;20437;-70
2021/11/16 05:32:33;;;;;;;16.27;11.63;;;7.80;99.90;;;;;;5030130;28;20449;-69
2021/11/16 05:34:58;;;;;;;17.40;12.57;;;7.80;99.90;;;;;;4997126;28;20497;-70
2021/11/16 05:37:24;;;;;;;18.43;12.70;;;7.60;99.90;;;;;;4997055;28;20439;-70
2021/11/16 05:39:50;;;;;;;18.20;12.23;;;7.70;99.90;;;;;;4995844;28;20212;-69
2021/11/16 05:42:18;;;;;;;17.73;12.20;;;7.80;99.90;;;;;;5014885;28;20219;-70
2021/11/16 05:44:43;;;;;;;17.83;12.60;;;7.80;99.90;;;;;;5034704;28;20190;-70
2021/11/16 05:47:09;;;;;;;19.30;12.20;;;7.60;99.90;;;;;;5009196;28;20989;-69
2021/11/16 05:49:35;;;;;;;20.20;11.50;;;7.40;99.90;;;;;;5015753;28;20711;-69
2021/11/16 05:52:03;;;;;;;16.83;11.13;;;7.20;99.90;;;;;;5014407;28;20296;-69
2021/11/16 05:54:32;;;;;;;18.87;12.00;;;7.30;99.90;;;;;;5015161;28;20210;-69
2021/11/16 05:56:59;;;;;;;18.93;12.80;;;7.40;99.90;;;;;;5012506;28;20482;-69
2021/11/16 05:59:32;;;;;;;20.00;12.57;;;7.50;99.90;;;;;;5026189;28;20501;-73
2021/11/16 06:01:57;;;;;;;20.97;12.53;;;7.40;99.90;;;;;;5039715;28;20437;-69
2021/11/16 06:04:23;;;;;;;18.43;11.80;;;7.60;99.90;;;;;;5043069;28;20421;-69
2021/11/16 06:06:49;;;;;;;21.30;14.57;;;7.60;99.90;;;;;;5032015;28;20187;-69
2021/11/16 06:09:14;;;;;;;21.60;13.97;;;7.70;99.90;;;;;;5003446;28;20302;-70
2021/11/16 06:11:40;;;;;;;17.70;12.67;;;7.60;99.90;;;;;;5003567;28;20214;-69
2021/11/16 06:14:05;;;;;;;17.33;12.57;;;7.70;99.90;;;;;;5004926;28;20188;-69
2021/11/16 06:16:32;;;;;;;18.47;12.90;;;7.80;99.90;;;;;;5004558;28;20195;-69
2021/11/16 06:19:05;;;;;;;19.40;12.83;;;7.90;99.90;;;;;;5005149;28;20255;-69
2021/11/16 06:21:31;;;;;;;19.47;11.90;;;7.70;99.90;;;;;;4995630;28;20415;-69
2021/11/16 06:23:57;;;;;;;23.07;14.27;;;7.80;99.90;;;;;;4995679;28;20554;-69
2021/11/16 06:26:24;;;;;;;19.97;14.07;;;7.80;99.90;;;;;;4995314;28;20420;-69
2021/11/16 06:28:51;;;;;;;21.60;13.83;;;7.90;99.90;;;;;;4996026;28;20493;-69
2021/11/16 06:31:20;;;;;;;29.80;15.30;;;7.90;99.90;;;;;;4997250;28;20407;-69
2021/11/16 06:33:46;;;;;;;18.27;12.63;;;7.90;99.90;;;;;;4996849;28;20427;-69
2021/11/16 06:36:12;;;;;;;20.13;13.80;;;7.80;99.90;;;;;;4993747;28;20788;-69
2021/11/16 06:38:38;;;;;;;24.90;14.60;;;7.70;99.90;;;;;;4995809;28;20521;-68
2021/11/16 06:41:03;;;;;;;23.80;14.50;;;7.80;99.90;;;;;;4996056;28;20176;-69
2021/11/16 06:43:31;;;;;;;21.63;14.17;;;7.80;99.90;;;;;;5014184;28;20179;-69
2021/11/16 06:46:00;;;;;;;21.77;14.93;;;7.90;99.90;;;;;;5013224;28;20176;-69
2021/11/16 06:48:26;;;;;;;21.63;14.23;;;8.00;99.90;;;;;;5013431;28;20811;-68
2021/11/16 06:50:53;;;;;;;24.00;14.83;;;8.00;99.90;;;;;;5013972;28;20423;-69
2021/11/16 06:53:28;;;;;;;22.73;15.30;;;7.90;99.90;;;;;;5012689;28;20219;-69
2021/11/16 06:55:54;;;;;;;24.93;14.37;;;7.90;99.90;;;;;;5014474;28;20809;-70
2021/11/16 06:58:22;;;;;;;23.20;14.63;;;7.90;99.90;;;;;;5014249;28;20434;-70
2021/11/16 07:00:49;;;;;;;19.80;14.20;;;7.90;99.90;;;;;;5013544;28;20461;-70
2021/11/16 07:03:19;;;;;;;21.57;15.50;;;7.80;99.90;;;;;;5012048;28;20572;-68
2021/11/16 07:05:53;;;;;;;25.50;15.10;;;7.70;99.90;;;;;;5013711;28;20414;-69
2021/11/16 07:08:38;;;;;;;22.00;14.97;;;7.60;99.90;;;;;;5013623;28;20418;-70
2021/11/16 07:11:05;;;;;;;25.93;15.40;;;7.60;99.90;;;;;;5014161;28;20456;-68
2021/11/16 07:13:31;;;;;;;24.90;16.47;;;7.40;99.90;;;;;;5012401;28;20430;-69
2021/11/16 07:15:57;;;;;;;25.10;16.03;;;7.20;99.90;;;;;;5013663;28;20930;-70
2021/11/16 07:18:23;;;;;;;26.47;17.03;;;7.00;99.90;;;;;;5013756;28;20190;-70
2021/11/16 07:21:00;;;;;;;26.00;16.60;;;6.80;99.90;;;;;;5014283;28;20450;-69
2021/11/16 07:23:26;;;;;;;28.83;17.70;;;6.70;99.90;;;;;;5013488;28;20185;-69
2021/11/16 07:25:52;;;;;;;22.13;15.10;;;6.60;99.90;;;;;;5013672;28;20418;-70
2021/11/16 07:28:19;;;;;;;26.77;16.40;;;6.60;99.90;;;;;;5014235;28;20422;-70
2021/11/16 07:30:44;;;;;;;24.80;16.10;;;6.70;99.90;;;;;;5013587;28;20184;-70
2021/11/16 07:33:14;;;;;;;30.27;17.00;;;6.70;99.90;;;;;;5021016;28;20941;-69
2021/11/16 07:35:41;;;;;;;26.90;15.97;;;6.80;99.90;;;;;;5034692;28;20197;-69
2021/11/16 07:38:09;;;;;;;25.87;16.80;;;6.80;99.90;;;;;;5014958;28;20430;-70
2021/11/16 07:40:41;;;;;;;25.30;16.70;;;6.70;99.90;;;;;;5015215;28;20465;-70
2021/11/16 07:43:10;;;;;;;25.30;15.07;;;6.80;99.90;;;;;;5014491;28;20403;-71
2021/11/16 07:45:41;;;;;;;26.10;14.83;;;7.00;99.90;;;;;;5006796;28;20427;-70
2021/11/16 07:48:09;;;;;;;24.73;16.07;;;6.90;99.90;;;;;;4994153;28;20854;-71
2021/11/16 07:50:42;;;;;;;25.03;15.27;;;6.80;99.90;;;;;;4995267;28;20464;-69
2021/11/16 07:53:33;;;;;;;25.10;16.27;;;6.70;99.90;;;;;;4994659;28;20447;-69
2021/11/16 07:56:10;;;;;;;22.63;13.33;;;6.70;99.90;;;;;;4993401;28;20427;-70
2021/11/16 07:58:43;;;;;;;24.57;15.87;;;6.60;99.90;;;;;;4992670;28;20499;-68
2021/11/16 08:01:15;;;;;;;27.17;15.10;;;6.60;99.90;;;;;;4993211;28;20418;-70
2021/11/16 08:03:53;;;;;;;25.60;15.87;;;6.50;99.90;;;;;;4999459;28;20403;-69
2021/11/16 08:06:34;;;;;;;23.17;15.50;;;6.60;99.90;;;;;;4998524;28;20432;-70
2021/11/16 08:09:16;;;;;;;22.63;15.03;;;6.60;99.90;;;;;;4998842;28;20443;-69
2021/11/16 08:11:48;;;;;;;24.60;15.60;;;6.60;99.90;;;;;;5000426;28;20407;-69
2021/11/16 08:14:16;;;;;;;24.17;15.60;;;6.70;99.90;;;;;;5002386;28;20411;-70
2021/11/16 08:16:51;;;;;;;23.93;15.67;;;6.80;99.90;;;;;;4999961;28;20447;-70
2021/11/16 08:19:24;;;;;;;23.60;12.93;;;7.00;99.90;;;;;;4999129;28;20466;-69
2021/11/16 08:21:55;;;;;;;22.10;14.33;;;7.10;99.90;;;;;;5016433;28;20422;-68
2021/11/16 08:24:22;;;;;;;22.87;14.60;;;7.30;99.90;;;;;;5001947;28;20392;-70
2021/11/16 08:26:50;;;;;;;18.17;12.87;;;7.50;99.90;;;;;;5001311;28;20423;-68
2021/11/16 08:29:28;;;;;;;19.23;13.67;;;7.60;99.90;;;;;;5002548;28;20817;-70
2021/11/16 08:32:07;;;;;;;19.63;12.23;;;7.70;99.90;;;;;;5002639;28;20419;-69
2021/11/16 08:34:35;;;;;;;20.63;12.50;;;7.80;99.90;;;;;;5038598;28;20789;-71
2021/11/16 08:37:08;;;;;;;21.73;14.07;;;7.80;99.90;;;;;;5040592;28;20422;-70
2021/11/16 08:39:46;;;;;;;21.70;13.40;;;7.70;99.90;;;;;;5040825;28;20482;-70
2021/11/16 08:42:25;;;;;;;20.53;13.23;;;7.80;99.90;;;;;;5004959;28;20418;-71
2021/11/16 08:45:07;;;;;;;21.03;14.23;;;7.80;99.90;;;;;;4994826;28;20417;-71
2021/11/16 08:47:36;;;;;;;23.00;14.03;;;7.90;99.90;;;;;;4994205;28;20439;-69
2021/11/16 08:50:06;;;;;;;22.07;14.50;;;7.90;99.90;;;;;;4994488;28;20502;-70
2021/11/16 08:52:32;;;;;;;17.80;12.87;;;7.90;99.90;;;;;;4995292;28;20428;-69
2021/11/16 08:55:28;;;;;;;19.23;13.13;;;7.80;99.90;;;;;;4992715;28;20423;-68
2021/11/16 08:57:56;;;;;;;20.50;12.57;;;7.90;99.90;;;;;;4993494;28;20447;-69
2021/11/16 09:00:25;;;;;;;18.67;12.80;;;7.90;99.90;;;;;;4992390;28;20884;-69
2021/11/16 09:03:00;;;;;;;22.63;12.83;;;8.00;99.90;;;;;;4999627;28;20419;-70
2021/11/16 09:05:30;;;;;;;19.90;12.40;;;8.10;99.90;;;;;;5013199;28;20382;-69
2021/11/16 09:07:57;;;;;;;25.10;13.20;;;8.10;99.90;;;;;;5014715;28;20422;-69
2021/11/16 09:10:36;;;;;;;19.37;12.40;;;8.10;99.90;;;;;;5017221;28;20433;-70
2021/11/16 09:13:04;;;;;;;17.87;11.87;;;8.10;99.90;;;;;;5015947;28;20424;-69
2021/11/16 09:15:37;;;;;;;19.70;13.27;;;8.10;99.90;;;;;;5015626;28;20421;-70
2021/11/16 09:18:21;;;;;;;19.00;12.23;;;8.10;99.90;;;;;;5017243;28;20916;-70
2021/11/16 09:21:05;;;;;;;17.87;12.47;;;8.20;99.90;;;;;;5015970;28;21096;-70
2021/11/16 09:23:35;;;;;;;21.10;13.47;;;8.20;99.90;;;;;;5015556;28;20395;-70
2021/11/16 09:26:15;;;;;;;20.17;13.73;;;8.20;99.90;;;;;;5016134;28;20402;-70
2021/11/16 09:28:49;;;;;;;24.00;14.40;;;8.20;99.90;;;;;;5015871;28;20423;-70
2021/11/16 09:31:28;;;;;;;19.00;12.30;;;8.30;99.90;;;;;;5016072;28;20396;-71
2021/11/16 09:33:57;;;;;;;17.80;12.30;;;8.30;99.90;;;;;;5029212;28;20867;-68
2021/11/16 09:36:29;;;;;;;18.50;11.60;;;8.30;99.90;;;;;;4997829;28;20427;-71
2021/11/16 09:39:04;;;;;;;16.90;11.73;;;8.30;99.90;;;;;;4997556;28;20772;-70
2021/11/16 09:41:34;;;;;;;16.80;11.33;;;8.30;99.90;;;;;;4997099;28;20393;-70
2021/11/16 09:44:13;;;;;;;22.30;12.60;;;8.20;99.90;;;;;;4996992;28;20403;-71
2021/11/16 09:47:16;;;;;;;18.57;11.07;;;8.20;99.90;;;;;;5012564;28;20414;-69
2021/11/16 09:49:46;;;;;;;19.47;12.43;;;8.30;99.90;;;;;;4974780;28;20518;-70
2021/11/16 09:52:27;;;;;;;18.70;12.77;;;8.30;99.90;;;;;;4974999;28;20408;-70
2021/11/16 09:54:57;;;;;;;19.07;12.93;;;8.30;99.90;;;;;;4974848;28;20413;-70
2021/11/16 09:57:26;;;;;;;18.93;13.00;;;8.30;99.90;;;;;;4975328;28;20464;-70
2021/11/16 10:00:00;;;;;;;18.90;12.90;;;8.20;99.90;;;;;;4976539;28;20463;-71
2021/11/16 10:02:29;;;;;;;18.23;12.57;;;8.20;99.90;;;;;;4960892;28;20415;-71
2021/11/16 10:05:06;;;;;;;19.47;12.80;;;8.20;99.90;;;;;;4977058;28;20408;-69
2021/11/16 10:07:34;;;;;;;20.43;12.57;;;8.30;99.90;;;;;;4959802;28;20980;-69
2021/11/16 10:10:02;;;;;;;21.37;12.83;;;8.30;99.90;;;;;;4960680;28;20441;-71
2021/11/16 10:12:44;;;;;;;18.57;13.60;;;8.40;99.90;;;;;;4976561;28;20935;-69
2021/11/16 10:15:13;;;;;;;17.03;11.83;;;8.40;99.90;;;;;;4959430;28;20435;-70
2021/11/16 10:17:41;;;;;;;20.07;13.90;;;8.40;99.90;;;;;;4975051;28;20487;-69
2021/11/16 10:20:07;;;;;;;21.73;13.87;;;8.40;99.90;;;;;;4974699;28;20494;-71
2021/11/16 10:22:33;;;;;;;19.23;13.63;;;8.40;99.90;;;;;;4975483;28;20813;-71
2021/11/16 10:25:16;;;;;;;16.27;12.00;;;8.30;99.90;;;;;;4975076;28;20413;-71
2021/11/16 10:27:44;;;;;;;20.63;13.27;;;8.40;99.90;;;;;;5015233;28;20191;-69
2021/11/16 10:30:13;;;;;;;19.30;12.50;;;8.40;99.90;;;;;;5016406;28;20426;-70
2021/11/16 10:32:40;;;;;;;18.10;11.97;;;8.30;99.90;;;;;;5018932;28;20414;-71
2021/11/16 10:35:13;;;;;;;22.70;13.40;;;8.40;99.90;;;;;;5035763;28;20414;-71
2021/11/16 10:37:54;;;;;;;17.73;12.43;;;8.30;99.90;;;;;;5036046;28;20434;-71
2021/11/16 10:40:22;;;;;;;17.73;12.20;;;8.20;99.90;;;;;;5018404;28;20460;-70
2021/11/16 10:42:53;;;;;;;20.97;12.83;;;8.10;99.90;;;;;;5010841;28;20415;-70
2021/11/16 10:45:22;;;;;;;21.33;13.07;;;8.00;99.90;;;;;;5002778;28;20407;-70
2021/11/16 10:47:48;;;;;;;21.00;13.37;;;8.00;99.90;;;;;;4997701;28;20960;-71
2021/11/16 10:50:18;;;;;;;17.47;12.17;;;8.10;99.90;;;;;;5035295;23;20941;-70
2021/11/16 10:52:54;;;;;;;21.00;12.37;;;8.10;99.90;;;;;;5002191;28;21069;-70
2021/11/16 10:55:20;;;;;;;19.27;12.30;;;8.10;99.90;;;;;;4994220;28;20384;-69
2021/11/16 10:58:04;;;;;;;21.00;13.00;;;8.00;99.90;;;;;;4994659;28;20414;-69
2021/11/16 11:00:40;;;;;;;22.40;12.37;;;8.00;99.90;;;;;;4977496;28;20200;-69
2021/11/16 11:03:31;;;;;;;21.60;12.73;;;8.00;99.90;;;;;;4978156;28;20503;-69
2021/11/16 11:06:09;;;;;;;16.63;11.07;;;8.00;99.90;;;;;;4975968;28;20448;-69
2021/11/16 11:08:57;;;;;;;17.03;11.13;;;8.00;99.90;;;;;;4984274;28;20442;-69
2021/11/16 11:11:33;;;;;;;17.27;11.40;;;7.90;99.90;;;;;;4978529;28;20407;-70
2021/11/16 11:14:08;;;;;;;17.07;12.23;;;7.90;99.90;;;;;;4976017;28;20428;-70
2021/11/16 11:16:45;;;;;;;18.03;11.50;;;7.90;99.90;;;;;;4974548;28;20416;-69
2021/11/16 11:19:16;;;;;;;17.67;11.20;;;8.00;99.90;;;;;;4974598;28;21116;-69
2021/11/16 11:21:48;;;;;;;16.03;11.03;;;8.10;99.90;;;;;;4974712;28;20731;-70
2021/11/16 11:24:36;;;;;;;16.30;10.53;;;8.20;99.90;;;;;;4976383;28;20420;-69
2021/11/16 11:32:32;;;;;;;16.13;10.73;;;8.40;99.90;;;;;;4898779;29;20419;-69
2021/11/16 11:34:59;;;;;;;13.97;9.77;;;8.50;99.90;;;;;;4898120;29;20199;-69
2021/11/16 11:37:42;;;;;;;13.67;9.87;;;8.50;99.90;;;;;;4904657;29;20466;-69
2021/11/16 11:40:25;;;;;;;13.47;9.60;;;8.60;99.90;;;;;;4912955;29;20553;-69
2021/11/16 11:43:27;;;;;;;12.53;9.07;;;8.60;99.90;;;;;;4903604;29;21019;-69
2021/11/16 11:45:52;;;;;;;14.40;9.63;;;8.70;99.90;;;;;;4856643;29;20459;-69
2021/11/16 11:48:25;;;;;;;12.60;8.17;;;8.70;99.90;;;;;;4874718;29;20540;-70
2021/11/16 11:51:11;;;;;;;10.33;7.97;;;8.70;99.90;;;;;;4874704;29;20258;-70
2021/11/16 11:53:37;;;;;;;12.60;8.20;;;8.60;99.90;;;;;;4875568;29;20488;-69
2021/11/16 11:56:10;;;;;;;12.20;9.87;;;8.70;99.90;;;;;;4874988;29;20460;-69
2021/11/16 11:58:42;;;;;;;15.83;10.80;;;8.70;99.90;;;;;;4875425;29;20804;-70
2021/11/16 12:01:11;;;;;;;13.27;9.57;;;8.70;99.90;;;;;;4875723;29;20448;-69
2021/11/16 12:03:41;;;;;;;14.85;10.68;;;8.60;99.90;;;;;;4874665;29;20443;-69
2021/11/16 12:06:07;;;;;;;12.53;10.40;;;8.60;99.90;;;;;;4888622;29;20213;-69
2021/11/16 12:08:33;;;;;;;12.60;9.37;;;8.60;99.90;;;;;;4932072;29;20462;-70
2021/11/16 12:10:59;;;;;;;13.63;9.00;;;8.70;99.90;;;;;;4937460;29;20474;-70
2021/11/16 12:13:26;;;;;;;13.23;8.40;;;8.60;99.90;;;;;;4931593;29;20474;-71
2021/11/16 12:16:07;;;;;;;12.40;8.53;;;8.50;99.90;;;;;;4931778;29;20220;-69
2021/11/16 12:18:42;;;;;;;13.23;9.60;;;8.60;99.90;;;;;;4938429;28;20455;-69
2021/11/16 12:21:24;;;;;;;9.47;7.90;;;8.50;99.90;;;;;;4965648;28;20839;-70
2021/11/16 12:23:55;;;;;;;12.77;9.20;;;8.50;99.90;;;;;;4993911;28;20438;-69
2021/11/16 12:26:22;;;;;;;12.43;8.77;;;8.60;99.90;;;;;;4992997;28;20435;-69
2021/11/16 12:28:47;;;;;;;14.03;10.10;;;8.50;99.90;;;;;;4976996;28;20480;-70
2021/11/16 12:31:28;;;;;;;11.43;8.90;;;8.50;99.90;;;;;;4975644;28;20451;-70
2021/11/16 12:33:57;;;;;;;15.50;10.77;;;8.50;99.90;;;;;;4999274;28;20222;-69
2021/11/16 12:36:29;;;;;;;12.63;8.77;;;8.40;99.90;;;;;;4994223;28;20444;-70
2021/11/16 12:38:56;;;;;;;10.67;8.40;;;8.10;99.90;;;;;;4996364;28;20458;-69
2021/11/16 12:41:34;;;;;;;12.80;9.73;;;8.10;99.90;;;;;;4970251;28;20952;-69
2021/11/16 12:44:05;;;;;;;11.00;8.27;;;8.10;99.90;;;;;;4975734;28;20439;-68
2021/11/16 12:46:36;;;;;;;13.33;8.90;;;8.20;99.90;;;;;;4942166;28;20443;-68
2021/11/16 12:49:04;;;;;;;12.47;8.73;;;8.30;99.90;;;;;;4974353;28;20483;-69
2021/11/16 12:51:34;;;;;;;12.93;8.60;;;8.30;99.90;;;;;;4981129;28;21035;-69
2021/11/16 12:54:03;;;;;;;10.03;7.57;;;8.40;99.90;;;;;;4995787;28;20526;-69
2021/11/16 12:56:45;;;;;;;9.37;7.40;;;8.40;99.90;;;;;;4994080;28;20889;-70
2021/11/16 12:59:14;;;;;;;9.37;7.40;;;8.40;99.90;;;;;;4993113;28;20489;-69
2021/11/16 13:01:46;;;;;;;10.10;7.77;;;8.40;99.90;;;;;;5010959;28;20462;-70